Time;durP1;ratioP1;P1;durP2;ratioP2;P2;SDS_P1;SDS_P2;PMS_P1;PMS_P2;Temp;Humidity;BMP_temperature;BMP_pressure;BME280_temperature;BME280_humidity;BME280_pressure;Samples;Min_cycle;Max_cycle;Signal;HPM_P1;HPM_P2
2021/01/31 00:00:43;;;;;;;13.77;11.73;;;2.30;78.00;;;;;;5055072;28;20033;-76
2021/01/31 00:03:17;;;;;;;15.23;12.20;;;2.40;77.60;;;;;;5037377;28;20071;-77
2021/01/31 00:05:43;;;;;;;15.00;12.00;;;2.40;77.80;;;;;;5053925;28;20021;-77
2021/01/31 00:08:10;;;;;;;14.07;11.43;;;2.40;77.40;;;;;;5037201;28;20076;-77
2021/01/31 00:10:36;;;;;;;17.40;12.57;;;2.30;77.40;;;;;;5053781;28;20029;-77
2021/01/31 00:13:01;;;;;;;16.47;12.13;;;2.30;77.50;;;;;;5053684;28;20375;-74
2021/01/31 00:15:32;;;;;;;15.93;12.30;;;2.30;78.00;;;;;;5037108;28;20070;-76
2021/01/31 00:17:58;;;;;;;16.48;11.82;;;2.20;78.40;;;;;;5037238;28;20454;-75
2021/01/31 00:20:26;;;;;;;19.40;12.70;;;2.10;78.40;;;;;;5036849;28;20028;-74
2021/01/31 00:22:51;;;;;;;14.23;12.23;;;2.00;78.80;;;;;;5036879;28;20087;-75
2021/01/31 00:25:17;;;;;;;15.53;12.57;;;2.00;79.00;;;;;;5054451;28;20061;-77
2021/01/31 00:27:43;;;;;;;15.33;12.47;;;1.90;79.20;;;;;;5053982;28;20044;-74
2021/01/31 00:30:12;;;;;;;16.80;12.53;;;2.00;79.00;;;;;;5054155;28;20037;-77
2021/01/31 00:32:37;;;;;;;16.87;12.47;;;2.00;79.10;;;;;;5053196;28;20025;-75
2021/01/31 00:35:03;;;;;;;16.77;12.40;;;1.90;79.30;;;;;;5054411;28;20040;-74
2021/01/31 00:37:29;;;;;;;15.63;12.33;;;1.90;79.10;;;;;;5054310;28;20100;-74
2021/01/31 00:39:55;;;;;;;15.17;11.83;;;1.80;79.60;;;;;;5053080;28;20033;-74
2021/01/31 00:42:20;;;;;;;15.63;12.10;;;1.80;79.60;;;;;;5053345;28;20063;-74
2021/01/31 00:44:49;;;;;;;15.97;12.90;;;1.90;79.40;;;;;;5036593;28;20032;-76
2021/01/31 00:47:15;;;;;;;18.53;13.93;;;1.80;79.10;;;;;;5036814;28;20035;-76
2021/01/31 00:49:42;;;;;;;19.83;13.37;;;1.90;79.30;;;;;;5054206;28;20044;-77
2021/01/31 00:52:08;;;;;;;15.63;12.03;;;1.80;79.40;;;;;;5053818;28;20359;-77
2021/01/31 00:54:33;;;;;;;14.53;12.47;;;1.90;79.90;;;;;;5052937;28;20107;-77
2021/01/31 00:56:59;;;;;;;18.23;12.47;;;1.90;79.00;;;;;;5054039;28;20040;-76
2021/01/31 00:59:24;;;;;;;18.13;13.03;;;1.80;79.10;;;;;;5036424;28;20029;-77
2021/01/31 01:01:50;;;;;;;18.37;14.07;;;1.90;78.80;;;;;;5052762;28;20458;-74
2021/01/31 01:04:16;;;;;;;17.77;14.07;;;1.80;79.10;;;;;;5053951;28;20537;-74
2021/01/31 01:06:41;;;;;;;19.50;13.80;;;1.80;79.30;;;;;;5053852;28;20068;-74
2021/01/31 01:09:07;;;;;;;18.73;14.47;;;1.70;79.70;;;;;;5053667;28;20036;-74
2021/01/31 01:11:32;;;;;;;16.70;12.97;;;1.80;79.60;;;;;;5053896;28;20044;-74
2021/01/31 01:13:58;;;;;;;19.43;14.10;;;1.80;78.90;;;;;;5053768;28;20478;-74
2021/01/31 01:16:23;;;;;;;19.50;14.90;;;1.70;79.70;;;;;;5053508;28;20064;-75
2021/01/31 01:18:49;;;;;;;19.30;14.30;;;1.60;80.30;;;;;;5054544;28;20461;-74
2021/01/31 01:21:15;;;;;;;18.37;14.77;;;1.50;80.40;;;;;;5052431;28;20127;-74
2021/01/31 01:23:41;;;;;;;21.63;15.47;;;1.50;80.60;;;;;;5035979;28;20432;-74
2021/01/31 01:26:07;;;;;;;21.93;14.73;;;1.50;80.40;;;;;;5035810;28;20024;-76
2021/01/31 01:28:33;;;;;;;18.73;15.13;;;1.60;80.30;;;;;;5052414;28;20036;-76
2021/01/31 01:30:58;;;;;;;17.23;14.17;;;1.60;80.10;;;;;;5053710;28;20041;-75
2021/01/31 01:33:24;;;;;;;17.93;14.37;;;1.50;80.20;;;;;;5052123;28;20590;-76
2021/01/31 01:35:49;;;;;;;19.63;15.30;;;1.50;80.60;;;;;;5053742;28;20108;-76
2021/01/31 01:38:15;;;;;;;18.47;15.00;;;1.50;80.60;;;;;;5053298;28;20037;-75
2021/01/31 01:40:41;;;;;;;21.53;15.90;;;1.50;80.50;;;;;;5057589;28;20087;-74
2021/01/31 01:43:12;;;;;;;21.67;16.00;;;1.60;80.40;;;;;;5056565;28;20024;-76
2021/01/31 01:45:38;;;;;;;22.13;15.83;;;1.50;80.20;;;;;;5039803;28;20442;-74
2021/01/31 01:48:16;;;;;;;20.47;15.57;;;1.60;80.00;;;;;;5057411;28;20056;-76
2021/01/31 01:50:52;;;;;;;24.10;15.93;;;1.60;80.10;;;;;;5056355;28;20358;-76
2021/01/31 01:53:19;;;;;;;22.20;14.93;;;1.60;79.90;;;;;;5040659;28;20100;-77
2021/01/31 01:56:09;;;;;;;20.17;15.70;;;1.50;80.30;;;;;;5039991;28;20036;-76
2021/01/31 01:58:35;;;;;;;19.47;15.97;;;1.50;80.20;;;;;;5042176;28;20059;-77
2021/01/31 02:01:00;;;;;;;21.37;16.20;;;1.60;80.00;;;;;;5057327;28;20025;-77
2021/01/31 02:03:31;;;;;;;20.13;16.67;;;1.60;79.80;;;;;;5056400;28;20029;-76
2021/01/31 02:06:16;;;;;;;18.52;15.27;;;1.60;79.70;;;;;;5039382;28;20017;-76
2021/01/31 02:08:42;;;;;;;20.57;15.87;;;1.50;80.30;;;;;;5055885;28;20021;-77
2021/01/31 02:11:09;;;;;;;23.57;17.13;;;1.40;80.50;;;;;;5056016;28;20033;-76
2021/01/31 02:13:36;;;;;;;21.67;16.17;;;1.40;80.40;;;;;;5056871;28;20462;-76
2021/01/31 02:16:01;;;;;;;20.03;16.13;;;1.30;80.70;;;;;;5039110;28;20386;-76
2021/01/31 02:18:37;;;;;;;22.53;15.90;;;1.20;81.10;;;;;;5038995;28;20033;-77
2021/01/31 02:21:28;;;;;;;20.70;15.87;;;1.20;81.50;;;;;;5055849;28;20024;-76
2021/01/31 02:23:54;;;;;;;;;;;1.20;81.40;;;;;;5056444;28;20017;-76
2021/01/31 02:26:53;;;;;;;24.20;16.03;;;1.20;81.50;;;;;;5056862;28;20254;-77
2021/01/31 02:29:51;;;;;;;20.37;15.80;;;1.10;81.40;;;;;;5057094;28;20474;-77
2021/01/31 02:32:41;;;;;;;22.77;15.57;;;1.10;81.60;;;;;;5056344;28;20112;-76
2021/01/31 02:35:13;;;;;;;22.83;17.20;;;1.10;81.80;;;;;;5056469;28;20386;-77
2021/01/31 02:38:03;;;;;;;23.07;17.00;;;1.10;81.60;;;;;;5038783;28;20033;-76
2021/01/31 02:40:33;;;;;;;21.73;16.33;;;1.20;81.50;;;;;;5048123;28;20041;-77
2021/01/31 02:43:09;;;;;;;24.30;17.00;;;1.20;81.20;;;;;;5055652;28;20052;-77
2021/01/31 02:45:39;;;;;;;20.97;16.27;;;1.20;81.10;;;;;;5038943;28;20363;-77
2021/01/31 02:48:09;;;;;;;22.65;16.45;;;1.10;81.80;;;;;;5038945;28;20132;-77
2021/01/31 02:50:56;;;;;;;22.83;16.97;;;1.00;82.10;;;;;;5054972;28;20021;-77
2021/01/31 02:53:27;;;;;;;22.83;17.47;;;1.00;82.00;;;;;;5055397;28;20025;-77
2021/01/31 02:55:59;;;;;;;21.67;15.75;;;1.00;82.00;;;;;;5038659;28;20017;-77
2021/01/31 02:58:27;;;;;;;23.97;17.50;;;1.00;82.10;;;;;;5039015;28;20111;-77
2021/01/31 03:01:03;;;;;;;23.10;17.10;;;1.00;82.20;;;;;;5038580;28;20024;-77
2021/01/31 03:03:41;;;;;;;23.07;18.13;;;1.10;81.80;;;;;;5038819;28;20021;-77
2021/01/31 03:06:10;;;;;;;25.83;17.90;;;1.10;81.60;;;;;;5039704;28;20021;-77
2021/01/31 03:08:45;;;;;;;21.63;17.33;;;1.10;81.60;;;;;;5038527;28;20068;-77
2021/01/31 03:11:12;;;;;;;24.67;17.70;;;1.00;81.60;;;;;;5055257;28;20505;-77
2021/01/31 03:13:49;;;;;;;23.63;17.60;;;0.90;82.30;;;;;;5055274;28;20446;-77
2021/01/31 03:16:17;;;;;;;20.80;16.83;;;0.80;82.50;;;;;;5055206;28;20421;-77
2021/01/31 03:18:46;;;;;;;24.83;18.07;;;0.80;82.90;;;;;;5038920;28;20031;-77
2021/01/31 03:21:16;;;;;;;24.27;17.50;;;0.80;82.90;;;;;;5038127;28;20033;-77
2021/01/31 03:24:24;;;;;;;23.67;17.80;;;0.80;82.70;;;;;;5038105;28;20111;-77
2021/01/31 03:26:57;;;;;;;23.80;17.83;;;0.80;82.40;;;;;;5048755;28;20401;-77
2021/01/31 03:29:23;;;;;;;23.37;18.10;;;0.90;82.30;;;;;;5054630;28;20137;-77
2021/01/31 03:31:51;;;;;;;23.40;17.93;;;0.80;82.30;;;;;;5054733;28;20065;-77
2021/01/31 03:34:23;;;;;;;26.60;19.60;;;0.80;82.30;;;;;;5038073;28;20059;-77
2021/01/31 03:36:51;;;;;;;27.00;18.63;;;0.80;82.50;;;;;;5037994;28;20115;-77
2021/01/31 03:39:17;;;;;;;23.00;18.30;;;0.80;82.40;;;;;;5038009;28;20028;-77
2021/01/31 03:41:43;;;;;;;24.93;19.33;;;0.90;82.20;;;;;;5054050;28;20029;-77
2021/01/31 03:44:08;;;;;;;25.73;18.40;;;0.90;82.10;;;;;;5054560;28;20415;-77
2021/01/31 03:46:37;;;;;;;25.33;18.53;;;0.80;82.10;;;;;;5054201;28;20032;-77
2021/01/31 03:49:20;;;;;;;26.27;18.13;;;0.80;82.90;;;;;;5037313;28;20087;-77
2021/01/31 03:51:46;;;;;;;25.70;18.67;;;0.80;82.20;;;;;;5055304;28;20095;-77
2021/01/31 03:54:12;;;;;;;26.80;18.90;;;0.80;82.40;;;;;;5055304;28;20156;-77
2021/01/31 03:56:41;;;;;;;28.70;19.87;;;0.70;82.60;;;;;;5053705;28;20104;-77
2021/01/31 03:59:07;;;;;;;25.40;19.27;;;0.60;83.10;;;;;;5037795;28;20373;-77
2021/01/31 04:01:35;;;;;;;26.23;18.80;;;0.50;83.60;;;;;;5053218;28;20029;-77
2021/01/31 04:04:06;;;;;;;28.67;19.37;;;0.50;83.60;;;;;;5037550;28;20032;-77
2021/01/31 04:06:33;;;;;;;27.08;20.10;;;0.50;83.60;;;;;;5037237;28;20474;-77
2021/01/31 04:08:58;;;;;;;25.60;20.23;;;0.50;83.40;;;;;;5037199;28;20025;-77
2021/01/31 04:11:34;;;;;;;24.20;19.60;;;0.50;83.30;;;;;;5053629;28;20048;-77
2021/01/31 04:14:05;;;;;;;23.60;17.63;;;0.50;83.40;;;;;;5053846;28;20021;-77
2021/01/31 04:16:35;;;;;;;26.58;18.25;;;0.40;83.60;;;;;;5054028;28;20021;-77
2021/01/31 04:19:00;;;;;;;26.58;19.73;;;0.40;84.00;;;;;;5037683;28;20079;-77
2021/01/31 04:21:27;;;;;;;26.43;20.20;;;0.40;83.90;;;;;;5053199;28;20025;-77
2021/01/31 04:23:53;;;;;;;27.90;19.43;;;0.40;83.80;;;;;;5054373;28;20025;-77
2021/01/31 04:26:18;;;;;;;25.73;19.63;;;0.40;84.00;;;;;;5054311;28;20033;-77
2021/01/31 04:28:44;;;;;;;25.00;19.23;;;0.40;84.10;;;;;;5054524;28;20029;-77
2021/01/31 04:31:10;;;;;;;27.47;19.93;;;0.40;83.90;;;;;;5054717;28;20382;-77
2021/01/31 04:33:35;;;;;;;27.30;20.37;;;0.40;83.80;;;;;;5054469;28;20049;-77
2021/01/31 04:36:01;;;;;;;27.83;20.87;;;0.40;83.40;;;;;;5054425;28;20431;-77
2021/01/31 04:38:26;;;;;;;24.33;19.53;;;0.50;83.20;;;;;;5054479;28;20033;-77
2021/01/31 04:40:52;;;;;;;28.80;20.53;;;0.60;82.90;;;;;;5054258;28;20151;-77
2021/01/31 04:43:18;;;;;;;24.83;19.13;;;0.50;82.80;;;;;;5053646;28;20021;-77
2021/01/31 04:45:44;;;;;;;27.07;20.53;;;0.40;83.00;;;;;;5036590;28;20461;-77
2021/01/31 04:48:29;;;;;;;26.47;19.23;;;0.40;83.30;;;;;;5052457;28;20386;-78
2021/01/31 04:51:11;;;;;;;28.70;19.77;;;0.30;83.90;;;;;;5054449;28;20029;-78
2021/01/31 04:53:54;;;;;;;27.70;19.90;;;0.20;84.40;;;;;;5053218;28;20033;-77
2021/01/31 04:56:27;;;;;;;27.60;20.60;;;0.10;84.50;;;;;;5038391;28;20029;-78
2021/01/31 04:58:55;;;;;;;25.20;19.40;;;0.20;84.30;;;;;;5052944;28;20354;-78
2021/01/31 05:01:26;;;;;;;29.43;19.70;;;0.20;84.00;;;;;;5036544;28;20028;-78
2021/01/31 05:04:12;;;;;;;27.52;21.00;;;0.20;84.10;;;;;;5052867;28;20476;-78
2021/01/31 05:06:43;;;;;;;28.27;21.00;;;0.20;84.20;;;;;;5052198;28;20474;-78
2021/01/31 05:09:17;;;;;;;28.67;21.90;;;0.20;83.90;;;;;;5036893;28;20029;-78
2021/01/31 05:11:50;;;;;;;31.37;22.10;;;0.20;84.00;;;;;;5036044;28;20036;-78
2021/01/31 05:14:33;;;;;;;30.03;21.10;;;0.20;84.20;;;;;;5052444;28;20363;-78
2021/01/31 05:16:59;;;;;;;32.73;20.87;;;0.20;84.10;;;;;;5052438;28;20021;-78
2021/01/31 05:19:27;;;;;;;31.37;21.40;;;0.20;83.70;;;;;;5052709;28;20179;-79
2021/01/31 05:21:52;;;;;;;28.70;21.67;;;0.20;83.80;;;;;;5036241;28;20501;-79
2021/01/31 05:24:19;;;;;;;28.33;21.23;;;0.20;83.90;;;;;;5035651;28;20025;-80
2021/01/31 05:26:50;;;;;;;31.50;21.43;;;0.20;83.80;;;;;;5035957;28;20025;-79
2021/01/31 05:29:17;;;;;;;31.17;22.47;;;0.20;83.80;;;;;;5036355;28;20039;-79
2021/01/31 05:31:56;;;;;;;31.20;22.37;;;0.20;83.60;;;;;;5036044;28;20410;-80
2021/01/31 05:34:43;;;;;;;29.93;21.13;;;0.20;83.80;;;;;;5052565;28;20021;-79
2021/01/31 05:37:10;;;;;;;30.00;21.27;;;0.20;83.80;;;;;;5036983;28;20114;-79
2021/01/31 05:39:47;;;;;;;30.70;22.33;;;0.20;83.90;;;;;;5035924;28;20077;-79
2021/01/31 05:42:17;;;;;;;31.97;22.07;;;0.10;84.20;;;;;;5052536;28;20028;-79
2021/01/31 05:44:43;;;;;;;29.33;21.97;;;0.10;84.30;;;;;;5035612;28;20025;-80
2021/01/31 05:47:24;;;;;;;30.93;21.10;;;0.00;84.30;;;;;;5036211;28;20442;-79
2021/01/31 05:49:52;;;;;;;28.80;21.80;;;0.10;84.10;;;;;;5037227;28;20045;-80
2021/01/31 05:52:21;;;;;;;31.40;21.90;;;0.10;84.30;;;;;;5020046;28;20083;-80
2021/01/31 05:54:48;;;;;;;30.07;21.33;;;0.00;84.70;;;;;;5053152;28;20055;-80
2021/01/31 05:57:25;;;;;;;32.97;22.97;;;0.00;84.40;;;;;;5035495;28;20028;-79
2021/01/31 05:59:50;;;;;;;28.80;21.57;;;0.00;84.40;;;;;;5052457;28;20025;-79
2021/01/31 06:02:36;;;;;;;32.30;23.37;;;0.10;84.40;;;;;;5035342;28;20025;-80
2021/01/31 06:05:20;;;;;;;31.50;22.23;;;0.10;83.70;;;;;;5053118;28;20049;-80
2021/01/31 06:07:46;;;;;;;30.83;22.07;;;0.10;83.60;;;;;;5053382;28;20116;-79
2021/01/31 06:10:17;;;;;;;31.67;22.00;;;0.20;83.30;;;;;;5052035;28;20035;-79
2021/01/31 06:12:47;;;;;;;34.30;23.42;;;0.10;83.60;;;;;;5052076;28;20128;-79
2021/01/31 06:15:33;;;;;;;32.90;22.80;;;0.10;83.60;;;;;;5051850;28;20025;-80
2021/01/31 06:18:03;;;;;;;31.47;21.67;;;0.00;83.90;;;;;;5037557;28;20052;-80
2021/01/31 06:20:34;;;;;;;32.35;22.27;;;0.00;84.20;;;;;;5052189;28;20021;-80
2021/01/31 06:23:00;;;;;;;31.73;22.63;;;0.00;83.90;;;;;;5052057;28;20023;-80
2021/01/31 06:25:26;;;;;;;33.87;22.63;;;0.00;84.10;;;;;;5037061;28;20033;-79
2021/01/31 06:27:53;;;;;;;32.13;22.67;;;0.00;83.80;;;;;;5056884;28;20377;-80
2021/01/31 06:30:52;;;;;;;35.97;23.03;;;0.00;84.00;;;;;;5038921;28;20589;-80
2021/01/31 06:33:18;;;;;;;30.90;22.27;;;-0.10;84.20;;;;;;5048529;28;20091;-80
2021/01/31 06:35:43;;;;;;;35.33;24.77;;;-0.10;84.20;;;;;;5056492;28;20036;-79
2021/01/31 06:38:36;;;;;;;32.73;23.60;;;-0.10;84.30;;;;;;5055571;28;20029;-80
2021/01/31 06:41:23;;;;;;;32.23;23.27;;;0.00;84.40;;;;;;5055189;28;20446;-80
2021/01/31 06:44:08;;;;;;;34.80;23.23;;;0.00;84.00;;;;;;5040630;28;20087;-80
2021/01/31 06:46:53;;;;;;;32.47;22.87;;;-0.10;84.10;;;;;;5040465;28;20028;-80
2021/01/31 06:49:47;;;;;;;32.17;23.97;;;-0.10;84.70;;;;;;5039029;28;20044;-80
2021/01/31 06:52:32;;;;;;;30.57;21.73;;;-0.20;84.50;;;;;;5038791;28;20036;-80
2021/01/31 06:54:57;;;;;;;34.47;23.27;;;-0.20;84.90;;;;;;5055656;28;20052;-80
2021/01/31 06:57:54;;;;;;;31.13;23.63;;;-0.10;84.60;;;;;;5056329;28;20118;-80
2021/01/31 07:00:19;;;;;;;31.83;23.30;;;-0.10;84.20;;;;;;5055345;28;20029;-79
2021/01/31 07:03:15;;;;;;;41.27;24.57;;;0.00;84.00;;;;;;5056247;28;20028;-80
2021/01/31 07:05:51;;;;;;;35.23;23.90;;;0.00;83.60;;;;;;5056232;28;20025;-80
2021/01/31 07:08:38;;;;;;;32.00;22.90;;;0.00;83.50;;;;;;5055003;28;20028;-80
2021/01/31 07:11:10;;;;;;;30.97;23.37;;;0.10;83.20;;;;;;5056066;28;20515;-80
2021/01/31 07:13:58;;;;;;;32.50;23.70;;;0.10;83.20;;;;;;5053924;28;20056;-80
2021/01/31 07:17:00;;;;;;;32.07;23.40;;;0.00;83.10;;;;;;5053512;28;20151;-81
2021/01/31 07:19:32;;;;;;;32.57;23.53;;;0.00;83.60;;;;;;5039236;28;20041;-80
2021/01/31 07:22:08;;;;;;;32.50;23.40;;;0.10;83.00;;;;;;5038795;28;20025;-80
2021/01/31 07:24:37;;;;;;;30.23;21.47;;;0.10;83.10;;;;;;5054938;28;20017;-81
2021/01/31 07:27:07;;;;;;;30.03;23.50;;;0.10;83.00;;;;;;5055666;28;20488;-80
2021/01/31 07:29:43;;;;;;;32.83;23.10;;;0.10;83.30;;;;;;5038138;28;20474;-79
2021/01/31 07:32:15;;;;;;;30.93;22.80;;;0.20;82.80;;;;;;5038305;28;20044;-80
2021/01/31 07:34:53;;;;;;;33.03;22.23;;;0.20;82.40;;;;;;5038673;28;20021;-80
2021/01/31 07:37:19;;;;;;;33.97;23.13;;;0.20;82.50;;;;;;5037247;28;20033;-80
2021/01/31 07:39:49;;;;;;;32.23;23.03;;;0.20;82.70;;;;;;5055290;28;20035;-80
2021/01/31 07:42:15;;;;;;;30.17;22.38;;;0.20;82.70;;;;;;5054154;28;20471;-80
2021/01/31 07:44:41;;;;;;;30.40;21.73;;;0.20;82.80;;;;;;5037693;28;20047;-80
2021/01/31 07:47:07;;;;;;;29.33;21.10;;;0.20;82.80;;;;;;5037622;28;20100;-79
2021/01/31 07:49:55;;;;;;;33.57;23.97;;;0.30;82.40;;;;;;5037209;28;20045;-80
2021/01/31 07:52:25;;;;;;;30.37;21.80;;;0.40;82.20;;;;;;5054740;28;20036;-80
2021/01/31 07:55:08;;;;;;;27.47;20.97;;;0.30;82.10;;;;;;5054073;28;20025;-80
2021/01/31 07:57:34;;;;;;;29.30;21.93;;;0.40;81.70;;;;;;5054112;28;20028;-79
2021/01/31 08:00:09;;;;;;;32.50;21.07;;;0.30;81.90;;;;;;5055211;28;20076;-80
2021/01/31 08:02:41;;;;;;;31.90;22.80;;;0.30;82.20;;;;;;5050027;28;20479;-81
2021/01/31 08:05:10;;;;;;;28.10;21.10;;;0.30;82.60;;;;;;5053654;28;20037;-80
2021/01/31 08:08:00;;;;;;;26.77;21.47;;;0.20;82.50;;;;;;5053204;28;20119;-80
2021/01/31 08:10:43;;;;;;;27.38;20.50;;;0.40;82.20;;;;;;5054261;28;20025;-80
2021/01/31 08:13:10;;;;;;;25.93;19.50;;;0.40;81.90;;;;;;5052712;28;20535;-81
2021/01/31 08:15:40;;;;;;;29.30;21.43;;;0.50;81.70;;;;;;5051564;28;20423;-81
2021/01/31 08:18:06;;;;;;;30.30;21.87;;;0.60;81.40;;;;;;5053237;28;20040;-81
2021/01/31 08:20:41;;;;;;;28.17;21.20;;;0.60;81.20;;;;;;5053758;28;20029;-81
2021/01/31 08:23:10;;;;;;;26.97;20.50;;;0.60;81.10;;;;;;5053193;28;20052;-80
2021/01/31 08:25:55;;;;;;;28.23;20.70;;;0.70;80.70;;;;;;5049864;28;20463;-80
2021/01/31 08:28:36;;;;;;;24.73;18.97;;;0.60;80.90;;;;;;5050595;28;20025;-79
2021/01/31 08:31:05;;;;;;;27.10;19.60;;;0.60;80.90;;;;;;5049261;28;20096;-78
2021/01/31 08:33:40;;;;;;;28.97;19.70;;;0.70;80.60;;;;;;5054257;28;20143;-78
2021/01/31 08:36:19;;;;;;;30.23;19.63;;;0.70;80.50;;;;;;5036514;28;20024;-78
2021/01/31 08:38:48;;;;;;;27.07;19.70;;;0.70;80.40;;;;;;5051782;28;20402;-78
2021/01/31 08:41:37;;;;;;;26.20;18.23;;;0.70;80.90;;;;;;5050727;28;20025;-81
2021/01/31 08:44:09;;;;;;;26.60;18.63;;;0.70;81.00;;;;;;5059105;28;20028;-81
2021/01/31 08:46:35;;;;;;;25.90;19.97;;;0.70;80.90;;;;;;5057460;28;20028;-81
2021/01/31 08:49:14;;;;;;;24.17;18.97;;;0.70;80.80;;;;;;5034702;28;20454;-81
2021/01/31 08:51:44;;;;;;;29.27;19.77;;;0.80;81.10;;;;;;5051602;28;20104;-82
2021/01/31 08:54:14;;;;;;;24.00;17.60;;;0.80;80.40;;;;;;5030799;28;20048;-81
2021/01/31 08:56:50;;;;;;;24.17;18.50;;;1.00;80.30;;;;;;5052655;28;20283;-81
2021/01/31 08:59:16;;;;;;;23.27;17.57;;;0.90;80.00;;;;;;5054276;28;20063;-81
2021/01/31 09:01:43;;;;;;;28.63;19.27;;;1.00;80.10;;;;;;5052966;28;20024;-81
2021/01/31 09:04:09;;;;;;;26.30;19.13;;;1.00;79.90;;;;;;5052818;28;20437;-82
2021/01/31 09:06:36;;;;;;;27.20;19.37;;;1.10;79.50;;;;;;5036308;28;20114;-81
2021/01/31 09:09:02;;;;;;;24.17;18.47;;;1.00;79.90;;;;;;5032833;28;20041;-81
2021/01/31 09:11:27;;;;;;;24.60;18.83;;;1.00;80.40;;;;;;5047720;28;20037;-81
2021/01/31 09:13:53;;;;;;;22.90;18.43;;;1.20;79.90;;;;;;5051165;28;20454;-81
2021/01/31 09:16:25;;;;;;;24.93;18.77;;;1.20;79.60;;;;;;5034784;28;20017;-80
2021/01/31 09:19:17;;;;;;;26.37;18.77;;;1.20;79.10;;;;;;5045900;28;20140;-81
2021/01/31 09:21:43;;;;;;;21.70;16.00;;;1.30;79.20;;;;;;5040475;28;20039;-81
2021/01/31 09:24:11;;;;;;;26.83;19.20;;;1.30;78.90;;;;;;5019350;28;20028;-81
2021/01/31 09:26:36;;;;;;;23.60;18.23;;;1.20;79.40;;;;;;5026077;28;20036;-81
2021/01/31 09:29:02;;;;;;;25.13;19.23;;;1.50;79.30;;;;;;5033785;28;20025;-82
2021/01/31 09:31:28;;;;;;;24.37;18.97;;;1.70;78.60;;;;;;5033830;28;20040;-81
2021/01/31 09:34:00;;;;;;;23.10;17.70;;;1.60;78.30;;;;;;5030714;28;20021;-82
2021/01/31 09:36:34;;;;;;;22.33;17.00;;;1.70;77.60;;;;;;5049066;28;20037;-82
2021/01/31 09:39:00;;;;;;;27.47;18.70;;;1.80;77.90;;;;;;5033258;28;20075;-82
2021/01/31 09:41:27;;;;;;;26.27;18.33;;;1.90;77.90;;;;;;5034541;28;20029;-82
2021/01/31 09:43:54;;;;;;;23.67;18.47;;;2.00;77.00;;;;;;5051808;28;20708;-82
2021/01/31 09:46:21;;;;;;;23.10;18.43;;;2.00;77.00;;;;;;5035320;28;20021;-82
2021/01/31 09:48:47;;;;;;;24.70;18.37;;;2.10;76.80;;;;;;5049045;28;20050;-82
2021/01/31 09:51:23;;;;;;;23.80;17.23;;;2.00;77.00;;;;;;5051243;28;20090;-82
2021/01/31 09:53:49;;;;;;;26.90;18.00;;;2.10;77.30;;;;;;5034660;28;20022;-82
2021/01/31 09:56:39;;;;;;;23.07;18.10;;;2.30;77.20;;;;;;5051499;28;20040;-83
2021/01/31 09:59:32;;;;;;;23.73;17.67;;;2.30;76.40;;;;;;5028891;28;20519;-83
2021/01/31 10:02:03;;;;;;;21.40;17.07;;;2.40;76.00;;;;;;5030733;28;20037;-83
2021/01/31 10:04:29;;;;;;;22.03;15.87;;;2.10;76.30;;;;;;5055202;28;20474;-83
2021/01/31 10:06:59;;;;;;;22.83;17.70;;;2.10;76.70;;;;;;5038444;28;20075;-83
2021/01/31 10:09:30;;;;;;;21.42;17.02;;;2.10;77.10;;;;;;5051945;28;20025;-82
2021/01/31 10:12:32;;;;;;;23.27;16.93;;;2.10;77.10;;;;;;5048928;28;20417;-83
2021/01/31 10:14:59;;;;;;;21.97;17.43;;;2.10;77.10;;;;;;5036590;28;20231;-83
2021/01/31 10:17:28;;;;;;;22.27;17.73;;;2.20;77.50;;;;;;5050810;28;20072;-82
2021/01/31 10:20:29;;;;;;;23.60;17.83;;;2.30;77.40;;;;;;5055608;28;20036;-83
2021/01/31 10:23:16;;;;;;;24.53;17.80;;;2.40;77.00;;;;;;5054809;28;20068;-82
2021/01/31 10:25:44;;;;;;;22.83;17.33;;;2.40;76.60;;;;;;5054689;28;20024;-82
2021/01/31 10:28:12;;;;;;;22.23;17.77;;;2.30;76.50;;;;;;5055505;28;20031;-82
2021/01/31 10:30:42;;;;;;;24.00;17.57;;;2.30;76.90;;;;;;5038797;28;20386;-83
2021/01/31 10:33:08;;;;;;;24.55;16.92;;;2.40;76.10;;;;;;5038576;28;20028;-82
2021/01/31 10:35:38;;;;;;;21.17;17.20;;;2.40;76.10;;;;;;5055175;28;20025;-82
2021/01/31 10:38:27;;;;;;;23.23;17.70;;;2.40;75.90;;;;;;5052027;28;20034;-81
2021/01/31 10:40:53;;;;;;;21.57;17.07;;;2.40;75.80;;;;;;5036050;28;20022;-83
2021/01/31 10:43:19;;;;;;;20.60;17.00;;;2.30;76.00;;;;;;5052720;28;20029;-82
2021/01/31 10:45:45;;;;;;;25.73;18.00;;;2.20;76.90;;;;;;5055767;28;20041;-82
2021/01/31 10:48:10;;;;;;;24.30;18.33;;;2.30;76.90;;;;;;5056163;28;20044;-83
2021/01/31 10:50:36;;;;;;;24.03;18.43;;;2.40;76.60;;;;;;5056474;28;20060;-82
2021/01/31 10:53:02;;;;;;;24.03;17.90;;;2.50;76.30;;;;;;5038814;28;20021;-82
2021/01/31 10:55:27;;;;;;;23.67;18.03;;;2.40;76.50;;;;;;5056416;28;20025;-82
2021/01/31 10:57:53;;;;;;;22.23;17.67;;;2.40;76.70;;;;;;5055156;28;20458;-82
2021/01/31 11:00:19;;;;;;;23.37;16.70;;;2.50;76.40;;;;;;5055340;28;20021;-82
2021/01/31 11:02:44;;;;;;;25.37;18.60;;;2.60;75.90;;;;;;5054782;28;20043;-82
2021/01/31 11:05:10;;;;;;;26.03;18.67;;;2.50;76.70;;;;;;5056640;28;20086;-83
2021/01/31 11:07:36;;;;;;;24.07;18.53;;;2.70;76.10;;;;;;5055186;28;20494;-82
2021/01/31 11:10:02;;;;;;;23.30;17.37;;;2.70;76.10;;;;;;5056495;28;20052;-83
2021/01/31 11:12:27;;;;;;;23.83;18.23;;;2.80;75.80;;;;;;5054504;28;20374;-82
2021/01/31 11:14:53;;;;;;;24.60;18.17;;;3.00;75.40;;;;;;5038306;28;20033;-83
2021/01/31 11:17:19;;;;;;;22.43;17.60;;;3.00;74.30;;;;;;5054851;28;20051;-82
2021/01/31 11:19:44;;;;;;;25.80;19.90;;;3.00;74.50;;;;;;5054735;28;20045;-82
2021/01/31 11:22:10;;;;;;;33.13;25.40;;;3.00;74.70;;;;;;5054418;28;20029;-82
2021/01/31 11:24:35;;;;;;;23.50;17.90;;;3.10;75.00;;;;;;5054610;28;20040;-82
2021/01/31 11:27:01;;;;;;;26.20;19.50;;;3.20;75.00;;;;;;5056230;28;20347;-82
2021/01/31 11:29:27;;;;;;;22.53;17.23;;;3.20;74.40;;;;;;5056895;28;20068;-82
2021/01/31 11:31:52;;;;;;;21.33;17.17;;;3.20;74.20;;;;;;5054804;28;20343;-82
2021/01/31 11:34:18;;;;;;;24.47;17.53;;;3.30;74.10;;;;;;5054640;28;20466;-82
2021/01/31 11:36:44;;;;;;;23.77;16.27;;;3.20;74.30;;;;;;5055652;28;20025;-82
2021/01/31 11:39:09;;;;;;;22.43;16.43;;;3.20;74.10;;;;;;5055293;28;20382;-82
2021/01/31 11:41:38;;;;;;;24.07;16.73;;;3.20;73.80;;;;;;5055143;28;20106;-82
2021/01/31 11:44:05;;;;;;;23.50;17.23;;;3.30;74.40;;;;;;5055213;28;20025;-82
2021/01/31 11:46:30;;;;;;;21.67;17.17;;;3.40;73.40;;;;;;5055087;28;20100;-82
2021/01/31 11:48:56;;;;;;;24.30;17.87;;;3.40;74.10;;;;;;5053993;28;20459;-82
2021/01/31 11:51:22;;;;;;;22.57;17.03;;;3.30;73.60;;;;;;5055191;28;20025;-82
2021/01/31 11:53:47;;;;;;;22.03;17.67;;;3.40;73.50;;;;;;5053930;28;20048;-82
2021/01/31 11:56:13;;;;;;;23.07;18.07;;;3.50;73.70;;;;;;5053970;28;20029;-81
2021/01/31 11:58:39;;;;;;;24.37;18.90;;;3.50;73.00;;;;;;5054037;28;20501;-81
2021/01/31 12:01:04;;;;;;;23.60;17.27;;;3.50;73.00;;;;;;5037499;28;20386;-82
2021/01/31 12:03:30;;;;;;;24.43;17.20;;;3.60;72.80;;;;;;5054237;28;20376;-81
2021/01/31 12:05:55;;;;;;;29.47;18.17;;;3.60;72.80;;;;;;5054173;28;20039;-81
2021/01/31 12:08:21;;;;;;;19.97;16.70;;;3.50;72.90;;;;;;5053807;28;20467;-81
2021/01/31 12:10:47;;;;;;;22.17;17.73;;;3.50;73.50;;;;;;5053885;28;20025;-81
2021/01/31 12:13:12;;;;;;;26.77;18.20;;;3.40;73.90;;;;;;5053714;28;20028;-81
2021/01/31 12:15:39;;;;;;;25.07;18.37;;;3.60;73.90;;;;;;5053771;28;20036;-81
2021/01/31 12:18:04;;;;;;;24.90;17.67;;;3.80;73.50;;;;;;5054636;28;20028;-81
2021/01/31 12:20:30;;;;;;;20.13;16.43;;;3.80;73.40;;;;;;5054903;28;20033;-81
2021/01/31 12:22:57;;;;;;;24.77;17.23;;;4.10;72.30;;;;;;5054374;28;20444;-80
2021/01/31 12:25:22;;;;;;;22.53;16.83;;;4.10;71.70;;;;;;5054694;28;20025;-80
2021/01/31 12:27:48;;;;;;;25.73;17.07;;;4.30;70.90;;;;;;5053564;28;20079;-80
2021/01/31 12:30:15;;;;;;;25.83;15.93;;;4.40;71.00;;;;;;5053677;28;20059;-80
2021/01/31 12:32:40;;;;;;;20.97;16.57;;;4.40;70.70;;;;;;5052983;28;20032;-80
2021/01/31 12:35:06;;;;;;;20.67;16.13;;;4.30;70.90;;;;;;5053784;28;20029;-80
2021/01/31 12:37:32;;;;;;;23.60;16.27;;;4.40;70.40;;;;;;5054327;28;20075;-80
2021/01/31 12:39:58;;;;;;;21.30;16.20;;;4.60;69.90;;;;;;5053225;28;20397;-80
2021/01/31 12:42:23;;;;;;;20.40;15.97;;;4.90;69.40;;;;;;5054637;28;20029;-80
2021/01/31 12:44:49;;;;;;;18.27;14.73;;;5.10;68.40;;;;;;5053148;28;20083;-80
2021/01/31 12:47:15;;;;;;;22.83;15.50;;;5.20;67.50;;;;;;5036285;28;20043;-80
2021/01/31 12:49:40;;;;;;;17.37;14.13;;;5.20;66.70;;;;;;5055510;28;20098;-80
2021/01/31 12:52:06;;;;;;;20.17;15.17;;;5.00;67.60;;;;;;5053942;28;20104;-79
2021/01/31 12:54:32;;;;;;;17.73;15.13;;;5.00;68.30;;;;;;5053410;28;20111;-79